Time;durP1;ratioP1;P1;durP2;ratioP2;P2;SDS_P1;SDS_P2;PMS_P1;PMS_P2;Temp;Humidity;BMP_temperature;BMP_pressure;BME280_temperature;BME280_humidity;BME280_pressure;Samples;Min_cycle;Max_cycle;Signal;HPM_P1;HPM_P2
2022/12/12 00:00:55;;;;;;;31.40;17.93;;;;;;;41.06;37.30;100939.38;5054324;28;20430;-72
2022/12/12 00:03:21;;;;;;;22.93;15.00;;;;;;;41.25;36.90;100931.63;5052920;28;20425;-71
2022/12/12 00:05:47;;;;;;;26.23;13.93;;;;;;;41.20;36.69;100941.91;5052691;28;20451;-70
2022/12/12 00:08:13;;;;;;;23.77;14.17;;;;;;;41.10;36.66;100923.22;5052654;28;20542;-70
2022/12/12 00:10:39;;;;;;;23.13;15.90;;;;;;;41.30;36.48;100920.53;5052815;28;20942;-71
2022/12/12 00:13:05;;;;;;;32.20;16.03;;;;;;;41.29;36.55;100918.94;5052592;28;20415;-70
2022/12/12 00:15:31;;;;;;;27.80;13.37;;;;;;;41.21;36.67;100911.63;5052574;28;20496;-69
2022/12/12 00:17:57;;;;;;;28.87;15.50;;;;;;;41.12;37.05;100902.69;5052659;28;20418;-69
2022/12/12 00:20:23;;;;;;;28.37;14.03;;;;;;;41.43;36.47;100910.56;5052821;28;20426;-70
2022/12/12 00:22:49;;;;;;;25.70;14.77;;;;;;;41.14;36.85;100899.66;5052095;28;20426;-70
2022/12/12 00:25:15;;;;;;;24.87;14.80;;;;;;;41.24;36.98;100900.06;5054085;28;20442;-70
2022/12/12 00:27:41;;;;;;;19.00;13.03;;;;;;;41.40;36.27;100899.56;5052190;28;20465;-71
2022/12/12 00:30:07;;;;;;;33.07;17.43;;;;;;;41.11;37.29;100901.09;5053901;28;20898;-71
2022/12/12 00:32:33;;;;;;;20.23;14.67;;;;;;;41.22;36.42;100905.06;5052045;28;20414;-70
2022/12/12 00:34:59;;;;;;;26.07;15.20;;;;;;;41.29;36.18;100908.06;5052276;28;20411;-69
2022/12/12 00:37:25;;;;;;;33.07;16.73;;;;;;;41.14;36.47;100910.56;5052135;28;20877;-72
2022/12/12 00:39:51;;;;;;;24.30;13.77;;;;;;;41.31;36.58;100902.28;5039949;28;20955;-71
2022/12/12 00:42:17;;;;;;;20.00;16.03;;;;;;;41.18;36.91;100893.22;5035587;28;20948;-71
2022/12/12 00:44:43;;;;;;;24.30;13.53;;;;;;;41.42;36.60;100900.00;5035640;28;20832;-72
2022/12/12 00:47:09;;;;;;;31.47;14.43;;;;;;;41.32;36.53;100891.09;5035461;28;20414;-74
2022/12/12 00:49:34;;;;;;;21.77;15.03;;;;;;;41.23;36.93;100903.13;5035711;28;20521;-74
2022/12/12 00:52:01;;;;;;;22.77;14.53;;;;;;;41.44;36.70;100900.50;5035409;28;20418;-72
2022/12/12 00:54:26;;;;;;;20.70;14.00;;;;;;;41.54;35.93;100902.81;5053698;28;20398;-70
2022/12/12 00:56:52;;;;;;;28.27;16.27;;;;;;;41.47;35.78;100903.34;5053249;28;20427;-70
2022/12/12 00:59:18;;;;;;;24.63;15.70;;;;;;;41.32;36.61;100902.00;5035118;28;20457;-70
2022/12/12 01:01:45;;;;;;;24.93;14.17;;;;;;;41.10;36.38;100901.44;5035724;28;20202;-69
2022/12/12 01:04:11;;;;;;;20.47;13.33;;;;;;;41.45;36.14;100899.38;5035034;28;20912;-70
2022/12/12 01:06:37;;;;;;;21.70;14.37;;;;;;;41.19;36.29;100885.84;5035011;28;21058;-73
2022/12/12 01:09:03;;;;;;;36.60;14.70;;;;;;;41.28;36.02;100892.84;5034864;28;20439;-70
2022/12/12 01:11:29;;;;;;;30.07;15.60;;;;;;;41.16;36.12;100881.88;5053364;28;20395;-70
2022/12/12 01:13:56;;;;;;;21.33;14.87;;;;;;;41.26;36.02;100878.78;5053185;28;20882;-70
2022/12/12 01:16:23;;;;;;;30.63;14.63;;;;;;;41.03;36.56;100880.19;5034729;28;20410;-70
2022/12/12 01:18:49;;;;;;;30.20;14.70;;;;;;;40.96;36.69;100869.03;5018397;28;20410;-70
2022/12/12 01:21:17;;;;;;;26.33;15.67;;;;;;;41.16;36.42;100873.72;5034897;28;20953;-69
2022/12/12 01:23:44;;;;;;;19.33;13.00;;;;;;;41.17;36.40;100872.56;5035086;28;20446;-71
2022/12/12 01:26:16;;;;;;;27.23;15.90;;;;;;;41.43;36.30;100869.72;5034708;28;20458;-71
2022/12/12 01:28:43;;;;;;;22.67;14.10;;;;;;;41.34;36.50;100858.91;5034731;28;20411;-71
2022/12/12 01:31:09;;;;;;;25.33;14.33;;;;;;;41.19;36.36;100853.19;5034659;28;20925;-71
2022/12/12 01:33:36;;;;;;;24.20;14.70;;;;;;;41.02;36.91;100851.38;5033867;28;20818;-70
2022/12/12 01:36:02;;;;;;;34.97;15.87;;;;;;;41.07;36.62;100852.00;5052864;28;20486;-72
2022/12/12 01:38:28;;;;;;;19.57;12.73;;;;;;;41.13;36.87;100841.72;5034347;28;20490;-74
2022/12/12 01:40:54;;;;;;;22.83;14.63;;;;;;;41.14;36.72;100834.34;5034526;28;20980;-74
2022/12/12 01:43:22;;;;;;;26.07;13.83;;;;;;;41.08;36.78;100833.75;5034856;28;20446;-72
2022/12/12 01:46:01;;;;;;;22.33;15.50;;;;;;;41.06;36.51;100836.78;5034481;28;20468;-70
2022/12/12 01:48:45;;;;;;;23.90;15.50;;;;;;;40.94;36.99;100839.41;5053087;28;20383;-72
2022/12/12 01:51:15;;;;;;;23.73;14.13;;;;;;;40.78;37.63;100830.19;5034547;28;20438;-74
2022/12/12 01:53:42;;;;;;;20.13;14.93;;;;;;;40.76;37.57;100833.22;5034497;28;20414;-74
2022/12/12 01:56:13;;;;;;;25.40;13.30;;;;;;;40.90;37.28;100829.50;5034450;28;20438;-75
2022/12/12 01:58:48;;;;;;;24.07;14.73;;;;;;;41.11;36.65;100830.34;5052359;28;20433;-70
2022/12/12 02:01:16;;;;;;;28.37;15.00;;;;;;;40.85;37.08;100830.47;5037043;28;20763;-70
2022/12/12 02:03:43;;;;;;;25.03;13.70;;;;;;;40.82;37.53;100841.97;5052691;28;20774;-72
2022/12/12 02:06:14;;;;;;;22.83;14.20;;;;;;;41.06;37.02;100836.78;5050845;28;20462;-70
2022/12/12 02:08:42;;;;;;;19.00;11.93;;;;;;;41.08;36.87;100839.19;5050949;28;20411;-70
2022/12/12 02:11:08;;;;;;;17.80;11.53;;;;;;;40.74;36.86;100832.75;5050944;28;20468;-70
2022/12/12 02:13:35;;;;;;;20.23;13.10;;;;;;;40.95;36.54;100832.06;5050927;28;20987;-72
2022/12/12 02:16:19;;;;;;;19.20;12.57;;;;;;;40.99;36.34;100831.06;5050836;28;20464;-74
2022/12/12 02:19:04;;;;;;;27.53;12.20;;;;;;;41.08;36.81;100833.75;5051083;28;20816;-75
2022/12/12 02:21:53;;;;;;;30.70;14.77;;;;;;;41.33;36.31;100824.66;5050801;28;20406;-70
2022/12/12 02:24:57;;;;;;;22.53;14.87;;;;;;;41.30;36.02;100819.81;5052520;28;20762;-70
2022/12/12 02:27:57;;;;;;;23.87;14.00;;;;;;;41.35;35.37;100821.59;5050737;28;20430;-70
2022/12/12 02:30:37;;;;;;;18.60;13.00;;;;;;;41.40;35.80;100820.59;5052413;28;20379;-73
2022/12/12 02:33:09;;;;;;;22.03;13.03;;;;;;;41.01;36.36;100819.88;5050697;28;20925;-72
2022/12/12 02:36:02;;;;;;;30.13;14.40;;;;;;;40.93;36.51;100826.94;5050462;28;20441;-69
2022/12/12 02:39:12;;;;;;;17.30;12.77;;;;;;;40.95;36.11;100830.13;5050552;28;20472;-70
2022/12/12 02:42:01;;;;;;;22.30;12.03;;;;;;;40.78;36.64;100830.19;5025603;28;20426;-70
2022/12/12 02:44:49;;;;;;;24.60;14.43;;;;;;;41.14;35.92;100834.34;5050873;28;20411;-72
2022/12/12 02:47:20;;;;;;;15.50;12.43;;;;;;;41.12;36.18;100829.22;5054382;28;20421;-74
2022/12/12 02:49:57;;;;;;;25.90;15.00;;;;;;;41.21;36.07;100831.91;5055965;28;20426;-74
2022/12/12 02:52:24;;;;;;;23.80;15.80;;;;;;;40.98;36.27;100829.47;5054262;28;20418;-74
2022/12/12 02:54:50;;;;;;;21.53;13.67;;;;;;;41.19;35.82;100828.69;5054515;28;20407;-72
2022/12/12 02:57:22;;;;;;;22.87;13.50;;;;;;;41.35;35.90;100837.91;5053741;28;20441;-72
2022/12/12 02:59:55;;;;;;;31.90;13.93;;;;;;;41.42;35.54;100842.84;5054062;28;20406;-71
2022/12/12 03:02:37;;;;;;;24.63;14.93;;;;;;;40.93;36.55;100837.81;5054009;28;20419;-70
2022/12/12 03:08:36;;;;;;;23.47;12.37;;;;;;;40.73;36.88;100839.31;5055217;28;20750;-70
2022/12/12 03:11:22;;;;;;;17.13;11.20;;;;;;;41.01;36.12;100836.97;5055569;28;20399;-70
2022/12/12 03:13:54;;;;;;;23.80;13.70;;;;;;;41.25;35.77;100830.94;5053914;28;20472;-70
2022/12/12 03:16:28;;;;;;;26.47;12.43;;;;;;;41.18;35.90;100827.09;5053988;28;20437;-71
2022/12/12 03:19:05;;;;;;;16.97;13.87;;;;;;;40.98;36.12;100831.38;5053759;28;20504;-71
2022/12/12 03:21:48;;;;;;;24.20;15.37;;;;;;;41.23;35.93;100835.88;5055245;28;20390;-71
2022/12/12 03:24:35;;;;;;;18.13;14.37;;;;;;;41.10;36.42;100842.38;5053934;28;20427;-70
2022/12/12 03:27:24;;;;;;;33.00;14.73;;;;;;;40.92;36.87;100838.94;5055164;28;20434;-69
2022/12/12 03:29:53;;;;;;;18.83;15.37;;;;;;;40.87;36.14;100828.19;5053485;28;20422;-70
2022/12/12 03:32:29;;;;;;;26.57;14.10;;;;;;;40.71;36.92;100833.41;5053709;28;20869;-71
2022/12/12 03:35:01;;;;;;;21.30;13.73;;;;;;;40.75;37.16;100830.81;5053372;28;20410;-72
2022/12/12 03:37:34;;;;;;;21.33;15.67;;;;;;;41.10;36.83;100836.94;5053209;28;20524;-70
2022/12/12 03:40:06;;;;;;;27.33;13.53;;;;;;;41.07;36.83;100837.59;5053301;28;20952;-71
2022/12/12 03:42:39;;;;;;;24.10;15.07;;;;;;;40.96;36.83;100844.53;5054890;28;20893;-70
2022/12/12 03:45:12;;;;;;;20.93;13.80;;;;;;;40.57;37.40;100835.53;5054685;28;21033;-73
2022/12/12 03:48:03;;;;;;;30.87;15.40;;;;;;;40.56;36.72;100842.09;5053056;28;20421;-74
2022/12/12 03:50:55;;;;;;;27.93;13.93;;;;;;;40.44;37.36;100842.72;5053174;28;20395;-74
2022/12/12 03:53:23;;;;;;;23.80;14.90;;;;;;;40.68;36.21;100844.94;5043219;28;20423;-72
2022/12/12 03:56:27;;;;;;;22.97;13.70;;;;;;;40.57;36.59;100840.97;5036273;28;20972;-70
2022/12/12 03:59:03;;;;;;;25.20;14.70;;;;;;;40.95;36.14;100842.94;4993366;28;20425;-70
2022/12/12 04:01:45;;;;;;;21.43;14.40;;;;;;;40.83;36.53;100837.38;5036297;28;20497;-70
2022/12/12 04:04:29;;;;;;;27.97;14.50;;;;;;;40.83;36.75;100838.16;5036267;28;20446;-69
2022/12/12 04:07:13;;;;;;;21.83;13.43;;;;;;;40.83;36.74;100848.25;5036462;28;20426;-69
2022/12/12 04:15:29;;;;;;;27.33;14.67;;;;;;;40.84;36.86;100844.41;5054069;28;20804;-72
2022/12/12 04:18:16;;;;;;;23.93;16.53;;;;;;;40.76;36.87;100849.56;5036942;28;20430;-72
2022/12/12 04:24:28;;;;;;;18.10;13.97;;;;;;;41.15;36.00;100850.34;5054040;28;20983;-71
2022/12/12 04:27:18;;;;;;;17.47;12.87;;;;;;;41.05;36.06;100850.72;5035840;28;20412;-71
2022/12/12 04:30:06;;;;;;;24.00;13.70;;;;;;;41.07;35.95;100854.72;5035736;28;20415;-71
2022/12/12 04:32:37;;;;;;;21.50;13.77;;;;;;;41.24;36.06;100861.16;5035592;28;20410;-70
2022/12/12 04:35:09;;;;;;;24.00;13.83;;;;;;;41.19;35.43;100864.91;5035733;28;20410;-70
2022/12/12 04:37:54;;;;;;;19.73;12.93;;;;;;;41.33;35.49;100862.75;5053459;28;20491;-70
2022/12/12 04:40:28;;;;;;;20.17;13.37;;;;;;;41.21;35.75;100865.38;5035445;28;20827;-70
2022/12/12 04:43:09;;;;;;;22.70;14.07;;;;;;;41.03;35.91;100863.84;5035364;28;20426;-69
2022/12/12 04:45:43;;;;;;;27.23;13.60;;;;;;;40.92;35.94;100859.91;5018880;28;20520;-70
2022/12/12 04:48:15;;;;;;;27.13;16.27;;;;;;;40.91;35.88;100867.28;5035308;28;20480;-70
2022/12/12 04:50:43;;;;;;;18.93;14.87;;;;;;;41.11;35.81;100863.00;5035403;28;20425;-69
2022/12/12 04:53:13;;;;;;;20.20;12.30;;;;;;;41.40;35.30;100866.88;5035287;28;20422;-70
2022/12/12 04:55:43;;;;;;;37.40;17.90;;;;;;;41.11;35.81;100873.09;5035185;28;20464;-70
2022/12/12 04:58:10;;;;;;;37.10;21.37;;;;;;;40.92;36.11;100868.06;5035160;28;20450;-70
2022/12/12 05:01:19;;;;;;;28.30;21.37;;;;;;;41.02;36.17;100879.38;5035147;28;20429;-72
2022/12/12 05:03:52;;;;;;;29.83;24.13;;;;;;;40.85;36.97;100881.34;5024794;28;20418;-74
2022/12/12 05:06:33;;;;;;;32.40;26.37;;;;;;;40.99;36.42;100879.22;5034999;28;20455;-74
2022/12/12 05:09:01;;;;;;;43.20;24.77;;;;;;;40.81;37.04;100887.44;5034112;28;20441;-74
2022/12/12 05:11:27;;;;;;;42.60;28.63;;;;;;;40.97;36.48;100892.38;5034990;28;20472;-70
2022/12/12 05:13:53;;;;;;;46.70;27.00;;;;;;;40.78;37.01;100898.19;5034985;28;20438;-70
2022/12/12 05:16:31;;;;;;;41.80;29.03;;;;;;;40.94;36.83;100899.25;5034980;28;20468;-71
2022/12/12 05:18:58;;;;;;;39.33;27.80;;;;;;;41.06;36.85;100907.53;5034881;28;20796;-71
2022/12/12 05:21:24;;;;;;;45.13;27.43;;;;;;;40.93;36.89;100907.75;5035102;28;20508;-71
2022/12/12 05:23:50;;;;;;;46.23;28.83;;;;;;;41.00;36.46;100908.81;5035025;28;20925;-72
2022/12/12 05:26:25;;;;;;;48.00;28.80;;;;;;;40.81;36.68;100917.34;5034848;28;20466;-72
2022/12/12 05:28:51;;;;;;;33.90;27.30;;;;;;;40.95;36.87;100917.19;5033262;28;20418;-70
2022/12/12 05:31:17;;;;;;;51.83;26.83;;;;;;;40.94;36.67;100921.00;5031414;28;20414;-72
2022/12/12 05:33:44;;;;;;;53.03;30.77;;;;;;;40.94;36.75;100928.38;5033947;28;20453;-68
2022/12/12 05:36:10;;;;;;;33.67;29.07;;;;;;;40.90;36.80;100933.69;5048696;28;20445;-68
2022/12/12 05:38:36;;;;;;;49.43;29.80;;;;;;;40.84;37.04;100931.44;5051208;28;20454;-68
2022/12/12 05:41:03;;;;;;;48.93;29.53;;;;;;;40.73;37.04;100934.50;5051227;28;20789;-74
2022/12/12 05:43:30;;;;;;;44.03;29.53;;;;;;;40.88;37.15;100943.25;5042905;28;20447;-69
2022/12/12 05:45:56;;;;;;;34.83;24.67;;;;;;;40.81;37.21;100952.72;5033078;28;20453;-71
2022/12/12 05:48:22;;;;;;;40.93;28.93;;;;;;;40.84;36.90;100950.47;5033115;28;20537;-69
2022/12/12 05:50:48;;;;;;;58.40;34.07;;;;;;;40.75;37.04;100948.56;5033071;28;20402;-70
2022/12/12 05:53:14;;;;;;;53.40;33.07;;;;;;;40.57;37.72;100957.88;5033656;28;20994;-69
2022/12/12 05:55:40;;;;;;;60.13;37.70;;;;;;;40.47;37.67;100958.19;5034298;28;20430;-69
2022/12/12 05:58:06;;;;;;;60.90;40.80;;;;;;;40.66;37.48;100961.41;5034338;28;20963;-69
2022/12/12 06:00:32;;;;;;;43.90;31.17;;;;;;;40.46;37.82;100959.31;5052714;28;20395;-69
2022/12/12 06:03:04;;;;;;;49.13;32.83;;;;;;;40.55;37.50;100960.94;5034408;28;20414;-69
2022/12/12 06:05:30;;;;;;;50.90;31.83;;;;;;;40.77;37.49;100965.38;5034118;28;20457;-70
2022/12/12 06:07:56;;;;;;;30.60;26.67;;;;;;;40.53;37.65;100967.81;5034363;28;20502;-71
2022/12/12 06:10:22;;;;;;;41.10;28.40;;;;;;;40.44;38.04;100967.78;5034193;28;20812;-70
2022/12/12 06:12:48;;;;;;;56.23;29.50;;;;;;;40.36;38.06;100973.25;5033912;28;20913;-74
2022/12/12 06:15:14;;;;;;;33.17;28.07;;;;;;;40.18;38.69;100984.09;5034193;28;20972;-71
2022/12/12 06:17:40;;;;;;;46.27;26.97;;;;;;;40.61;37.64;100980.59;5033515;28;20502;-71
2022/12/12 06:20:06;;;;;;;43.07;26.63;;;;;;;40.57;37.57;100974.19;5035078;28;20411;-71
2022/12/12 06:22:34;;;;;;;46.13;27.50;;;;;;;40.41;38.49;100981.22;5036592;28;20410;-70
2022/12/12 06:25:01;;;;;;;36.27;26.43;;;;;;;40.82;37.43;100975.28;5037470;28;20475;-71
2022/12/12 06:27:27;;;;;;;35.23;28.10;;;;;;;40.67;37.39;100987.47;5038337;28;20944;-70
2022/12/12 06:29:53;;;;;;;46.80;27.67;;;;;;;40.91;37.20;100991.63;5036473;28;20476;-71
2022/12/12 06:32:18;;;;;;;35.23;28.17;;;;;;;41.03;37.26;100989.03;5036335;28;20410;-71
2022/12/12 06:34:44;;;;;;;38.47;29.40;;;;;;;41.09;36.82;100976.84;5036468;28;20415;-71
2022/12/12 06:37:10;;;;;;;43.40;29.33;;;;;;;41.02;36.92;101001.03;5003817;28;20458;-72
2022/12/12 06:39:37;;;;;;;34.50;27.10;;;;;;;40.81;37.33;101004.38;5019819;28;20549;-73
2022/12/12 06:42:06;;;;;;;38.63;26.07;;;;;;;40.96;36.60;101002.34;5036204;28;20413;-70
2022/12/12 06:44:32;;;;;;;36.67;30.00;;;;;;;41.19;36.10;101002.88;5036277;28;20796;-70
2022/12/12 06:46:58;;;;;;;57.93;39.20;;;;;;;40.97;37.00;101009.38;5035996;28;20848;-71
2022/12/12 06:49:24;;;;;;;60.83;40.07;;;;;;;41.11;36.98;101006.44;5036038;28;20449;-69
2022/12/12 06:51:50;;;;;;;42.30;33.07;;;;;;;41.17;36.45;101016.03;5036588;28;20413;-70
2022/12/12 06:54:17;;;;;;;44.83;31.93;;;;;;;41.22;36.09;101013.94;5037634;28;20419;-70
2022/12/12 06:56:43;;;;;;;49.30;35.43;;;;;;;41.19;36.73;101020.03;5036389;28;20440;-71
2022/12/12 06:59:11;;;;;;;51.97;36.53;;;;;;;41.12;36.69;101029.81;5036334;28;20441;-69
2022/12/12 07:01:37;;;;;;;56.10;35.53;;;;;;;40.45;37.58;101029.19;5036803;28;20509;-72
2022/12/12 07:04:03;;;;;;;44.60;30.03;;;;;;;40.44;37.79;101034.94;5054956;28;20878;-72
2022/12/12 07:06:30;;;;;;;53.90;31.90;;;;;;;40.17;38.48;101031.41;5036149;28;20483;-72
2022/12/12 07:08:57;;;;;;;39.93;30.63;;;;;;;40.23;38.27;101027.44;5037052;28;20417;-70
2022/12/12 07:11:25;;;;;;;42.63;32.00;;;;;;;40.24;38.41;101044.53;5037144;28;20410;-70
2022/12/12 07:13:53;;;;;;;49.37;31.10;;;;;;;40.42;38.50;101034.47;5035949;28;20984;-72
2022/12/12 07:16:19;;;;;;;43.20;35.50;;;;;;;40.60;37.87;101038.81;5035213;28;20532;-72
2022/12/12 07:18:46;;;;;;;63.57;32.07;;;;;;;40.53;37.85;101041.22;5053313;28;20426;-72
2022/12/12 07:21:15;;;;;;;51.60;32.27;;;;;;;40.55;37.72;101050.66;5035299;28;20913;-71
2022/12/12 07:23:42;;;;;;;44.20;31.97;;;;;;;40.77;37.33;101049.69;5035098;28;20809;-72
2022/12/12 07:26:12;;;;;;;53.50;35.23;;;;;;;40.57;37.69;101046.81;5034944;28;20450;-71
2022/12/12 07:28:38;;;;;;;51.90;36.73;;;;;;;39.86;39.06;101047.78;5035767;28;20442;-72
2022/12/12 07:31:12;;;;;;;73.40;42.70;;;;;;;40.29;38.36;101050.63;5035995;28;20446;-70
2022/12/12 07:33:39;;;;;;;63.47;40.97;;;;;;;40.34;38.57;101059.75;5036766;28;20418;-70
2022/12/12 07:36:05;;;;;;;62.30;39.00;;;;;;;40.35;38.41;101050.47;5036672;28;20421;-71
2022/12/12 07:38:31;;;;;;;51.40;33.53;;;;;;;40.62;38.28;101058.34;5033322;28;20471;-70
2022/12/12 07:41:03;;;;;;;59.40;34.83;;;;;;;40.65;37.57;101067.78;5033310;28;20405;-69
2022/12/12 07:43:29;;;;;;;50.40;31.83;;;;;;;40.41;38.25;101070.94;5034967;28;20422;-70
2022/12/12 07:45:54;;;;;;;55.53;33.53;;;;;;;40.41;38.34;101074.47;5033465;28;20451;-70
2022/12/12 07:48:20;;;;;;;55.17;36.10;;;;;;;40.62;37.50;101068.41;5033255;28;20411;-70
2022/12/12 07:50:46;;;;;;;59.27;36.17;;;;;;;40.30;38.41;101067.72;5033489;28;20487;-69
2022/12/12 07:53:12;;;;;;;46.80;33.73;;;;;;;40.67;38.07;101066.34;5033267;28;20842;-70
2022/12/12 07:55:39;;;;;;;50.27;34.53;;;;;;;40.94;37.46;101067.13;5033175;28;20436;-70
2022/12/12 07:58:05;;;;;;;55.50;36.33;;;;;;;41.06;37.48;101065.34;5033129;28;20419;-70
2022/12/12 08:00:31;;;;;;;47.73;36.53;;;;;;;40.68;37.73;101061.69;5034449;28;20518;-70
2022/12/12 08:02:57;;;;;;;47.47;32.17;;;;;;;40.54;37.95;101070.81;5033010;28;20502;-70
2022/12/12 08:05:23;;;;;;;94.13;41.57;;;;;;;41.09;37.55;101074.81;5033006;28;20451;-71
2022/12/12 08:07:49;;;;;;;58.63;39.33;;;;;;;41.30;36.68;101081.16;5034374;28;20446;-70
2022/12/12 08:10:15;;;;;;;40.00;31.20;;;;;;;40.94;37.23;101078.81;5032847;28;20918;-71
2022/12/12 08:12:41;;;;;;;52.03;30.80;;;;;;;40.99;37.43;101077.84;5032803;28;20180;-71
2022/12/12 08:15:09;;;;;;;51.73;30.17;;;;;;;41.26;37.25;101085.66;5032606;28;20427;-70
2022/12/12 08:17:35;;;;;;;47.00;33.80;;;;;;;40.88;37.57;101082.78;5032578;28;20423;-70
2022/12/12 08:20:02;;;;;;;44.23;31.50;;;;;;;40.98;37.90;101082.50;5032762;28;20416;-70
2022/12/12 08:22:28;;;;;;;47.77;29.50;;;;;;;41.00;37.58;101077.53;5032524;28;20837;-70
2022/12/12 08:24:54;;;;;;;51.80;32.80;;;;;;;41.37;37.04;101090.75;5032438;28;21000;-70
2022/12/12 08:27:20;;;;;;;61.00;31.60;;;;;;;41.60;36.47;101089.41;5032536;28;20439;-70
2022/12/12 08:29:46;;;;;;;45.53;31.27;;;;;;;41.66;36.50;101090.81;5034048;28;20423;-72
2022/12/12 08:32:12;;;;;;;46.63;33.40;;;;;;;41.84;35.88;101086.94;5032747;28;20478;-72
2022/12/12 08:34:38;;;;;;;48.77;33.00;;;;;;;41.83;35.90;101090.78;5032411;28;20416;-72
2022/12/12 08:37:04;;;;;;;47.30;29.43;;;;;;;41.93;35.98;101092.34;5035853;28;20403;-70
2022/12/12 08:39:30;;;;;;;44.53;30.10;;;;;;;41.84;35.88;101092.38;5035711;28;20417;-70
2022/12/12 08:41:56;;;;;;;44.00;30.73;;;;;;;41.88;36.02;101089.81;5035581;28;20485;-69
2022/12/12 08:44:22;;;;;;;34.73;28.73;;;;;;;41.71;35.98;101095.31;5035227;28;20481;-70
2022/12/12 08:46:47;;;;;;;40.70;26.33;;;;;;;41.94;35.92;101087.69;5035717;28;20478;-70
2022/12/12 08:49:14;;;;;;;44.07;26.67;;;;;;;42.17;35.56;101099.91;5035362;28;20793;-70
2022/12/12 08:51:40;;;;;;;35.10;19.83;;;;;;;41.95;35.27;101100.97;5035361;28;20456;-70
2022/12/12 08:54:07;;;;;;;28.57;18.53;;;;;;;42.19;35.05;101102.34;5053632;28;20874;-70
2022/12/12 08:56:33;;;;;;;29.77;17.33;;;;;;;42.40;34.82;101101.19;5035366;28;20426;-70
2022/12/12 08:58:59;;;;;;;27.80;16.87;;;;;;;42.43;34.56;101104.41;5035274;28;20405;-70
2022/12/12 09:01:26;;;;;;;31.13;19.37;;;;;;;42.03;35.22;101102.84;5018729;28;20805;-70
2022/12/12 09:03:54;;;;;;;31.27;19.00;;;;;;;41.65;35.78;101091.97;5052999;28;20429;-70
2022/12/12 09:06:21;;;;;;;31.20;20.83;;;;;;;41.77;35.83;101094.03;5018784;28;20859;-70
2022/12/12 09:08:48;;;;;;;27.23;15.47;;;;;;;42.13;35.23;101094.31;5034983;28;20475;-70
2022/12/12 09:11:14;;;;;;;19.43;13.00;;;;;;;42.36;34.42;101099.50;5053193;28;20500;-70
2022/12/12 09:13:40;;;;;;;30.03;17.10;;;;;;;42.38;34.65;101095.28;5034904;28;20414;-72
2022/12/12 09:16:08;;;;;;;17.20;13.30;;;;;;;42.03;34.83;101107.50;5034986;28;20414;-72
2022/12/12 09:18:35;;;;;;;23.90;14.73;;;;;;;41.97;35.05;101097.91;5034918;28;20419;-72
2022/12/12 09:21:01;;;;;;;21.30;13.77;;;;;;;41.59;35.71;101099.50;5034951;28;20427;-70
2022/12/12 09:23:27;;;;;;;21.90;15.93;;;;;;;41.62;35.44;101098.06;5034842;28;20857;-70
2022/12/12 09:25:54;;;;;;;19.20;14.27;;;;;;;41.77;35.57;101094.81;5034627;28;20840;-72
2022/12/12 09:28:24;;;;;;;32.03;15.73;;;;;;;41.81;35.51;101097.69;5034833;28;20813;-72
2022/12/12 09:30:50;;;;;;;18.80;13.47;;;;;;;42.09;35.33;101096.09;5034709;28;20492;-70
2022/12/12 09:33:16;;;;;;;34.70;16.90;;;;;;;42.13;34.91;101102.47;5034701;28;20917;-70
2022/12/12 09:35:43;;;;;;;31.20;16.00;;;;;;;42.03;35.13;101091.94;5034846;28;20959;-70
2022/12/12 09:38:09;;;;;;;18.47;13.53;;;;;;;41.71;35.70;101098.81;5052473;28;20473;-70
2022/12/12 09:40:52;;;;;;;23.90;14.20;;;;;;;41.95;35.29;101100.19;5034589;28;20493;-70
2022/12/12 09:43:27;;;;;;;24.90;13.93;;;;;;;41.74;35.79;101090.03;5034581;28;20561;-70
2022/12/12 09:45:54;;;;;;;21.37;15.20;;;;;;;42.35;34.91;101097.88;5034515;28;20454;-70
2022/12/12 09:48:43;;;;;;;23.83;15.00;;;;;;;42.62;34.49;101097.38;5034488;28;20438;-70
2022/12/12 09:51:12;;;;;;;14.63;13.10;;;;;;;42.48;34.33;101088.66;5034351;28;20414;-72
2022/12/12 09:53:45;;;;;;;26.50;13.00;;;;;;;41.93;34.91;101092.34;5034521;28;20418;-72
2022/12/12 09:56:17;;;;;;;21.70;13.27;;;;;;;42.09;34.83;101092.56;5038097;28;20499;-72
2022/12/12 09:58:45;;;;;;;21.23;13.37;;;;;;;41.89;35.43;101087.88;5038544;28;20418;-72
2022/12/12 10:01:20;;;;;;;21.37;14.33;;;;;;;41.91;35.20;101089.13;5038602;28;20414;-72
2022/12/12 10:04:18;;;;;;;29.57;15.03;;;;;;;42.03;35.05;101085.72;5038716;28;20533;-72
2022/12/12 10:07:00;;;;;;;21.70;15.53;;;;;;;42.16;34.89;101079.25;5027924;28;21246;-72
2022/12/12 10:09:56;;;;;;;31.50;16.97;;;;;;;41.80;35.57;101079.72;5038422;28;20864;-72
2022/12/12 10:12:22;;;;;;;21.80;15.87;;;;;;;42.14;35.12;101082.28;5038149;28;20418;-72
2022/12/12 10:14:57;;;;;;;28.23;15.60;;;;;;;42.08;34.93;101078.13;5038305;28;20411;-71
2022/12/12 10:17:32;;;;;;;20.23;14.20;;;;;;;42.45;34.52;101069.41;5056589;28;20417;-72
2022/12/12 10:20:05;;;;;;;21.23;12.57;;;;;;;42.54;34.31;101068.22;5037956;28;20425;-70
2022/12/12 10:22:41;;;;;;;29.03;15.20;;;;;;;42.65;34.13;101071.34;5038220;28;20418;-70
2022/12/12 10:25:10;;;;;;;23.10;13.30;;;;;;;42.46;34.24;101066.34;5038133;28;20449;-70
2022/12/12 10:27:36;;;;;;;27.03;14.93;;;;;;;42.39;34.60;101074.28;5037961;28;20423;-70
2022/12/12 10:30:14;;;;;;;30.03;16.10;;;;;;;42.35;34.78;101067.88;5038067;28;20479;-71
2022/12/12 10:33:13;;;;;;;28.80;14.83;;;;;;;42.36;34.58;101053.94;5056244;28;20398;-70
2022/12/12 10:35:59;;;;;;;21.73;13.30;;;;;;;42.27;34.49;101057.84;5037854;28;20433;-71
2022/12/12 10:38:40;;;;;;;23.83;15.37;;;;;;;42.49;34.51;101057.53;5037698;28;20553;-71
2022/12/12 10:41:11;;;;;;;27.43;13.30;;;;;;;42.63;34.27;101055.34;5037743;28;20414;-69
2022/12/12 10:43:57;;;;;;;29.43;13.93;;;;;;;42.83;33.71;101052.91;5037802;28;20411;-71
2022/12/12 10:46:55;;;;;;;34.60;16.83;;;;;;;42.85;33.56;101048.72;5055822;28;20475;-72
2022/12/12 10:49:23;;;;;;;20.70;13.07;;;;;;;42.78;33.67;101053.91;5029890;28;20437;-72
2022/12/12 10:51:50;;;;;;;20.90;13.90;;;;;;;42.51;34.11;101040.81;5037653;28;20935;-72
2022/12/12 10:54:20;;;;;;;21.57;14.60;;;;;;;42.63;33.91;101043.63;5037543;28;20409;-70
2022/12/12 10:57:25;;;;;;;29.57;14.10;;;;;;;42.82;33.27;101046.66;5055719;28;20496;-71
2022/12/12 10:59:57;;;;;;;18.77;12.77;;;;;;;42.58;33.60;101036.44;5035592;28;20418;-71
2022/12/12 11:02:26;;;;;;;27.37;13.93;;;;;;;42.66;33.50;101040.22;5037299;28;20422;-71
2022/12/12 11:05:18;;;;;;;27.73;14.10;;;;;;;42.36;33.82;101023.94;5037402;28;20425;-72
2022/12/12 11:07:47;;;;;;;21.93;14.00;;;;;;;42.57;33.62;101028.56;5037279;28;20482;-71
2022/12/12 11:10:22;;;;;;;18.63;12.87;;;;;;;42.61;33.89;101021.34;5037414;28;20506;-71
2022/12/12 11:13:10;;;;;;;20.83;12.30;;;;;;;42.60;33.95;101023.28;5055392;28;20402;-73
2022/12/12 11:15:50;;;;;;;31.33;12.60;;;;;;;42.86;33.72;101020.28;5037679;28;20414;-73
2022/12/12 11:18:18;;;;;;;24.67;13.33;;;;;;;42.71;33.98;101006.47;5037147;28;20418;-73
2022/12/12 11:20:50;;;;;;;36.97;16.60;;;;;;;42.58;33.67;101003.72;5036968;28;20434;-73
2022/12/12 11:23:22;;;;;;;22.00;12.70;;;;;;;43.01;33.17;101001.69;5037079;28;20802;-73
2022/12/12 11:26:02;;;;;;;26.97;14.30;;;;;;;43.05;33.38;101005.34;5036865;28;20466;-74
2022/12/12 11:28:33;;;;;;;22.47;13.43;;;;;;;42.87;33.64;100994.59;5055202;28;20440;-73
2022/12/12 11:31:04;;;;;;;27.33;14.47;;;;;;;42.71;33.91;100988.19;5036917;28;20477;-72
2022/12/12 11:33:34;;;;;;;20.67;14.37;;;;;;;42.97;33.41;100992.56;5036948;28;20423;-71
2022/12/12 11:36:05;;;;;;;18.00;12.60;;;;;;;42.98;33.35;100988.72;5036765;28;20442;-70
2022/12/12 11:38:40;;;;;;;22.40;14.60;;;;;;;42.74;33.62;100979.34;5033380;28;20459;-70
2022/12/12 11:41:09;;;;;;;20.73;12.67;;;;;;;42.77;33.68;100967.72;5033415;28;20441;-70